sensor_id;sensor_type;location;lat;lon;timestamp;pressure;altitude;pressure_sealevel;temperature;humidity
6032;BME280;3044;43.232;27.972;2023-05-27T00:01:25;43809.69;;;-143.84;91.97
6032;BME280;3044;43.232;27.972;2023-05-27T00:03:52;43821.09;;;-143.84;91.71
6032;BME280;3044;43.232;27.972;2023-05-27T00:06:20;43823.00;;;-143.84;91.60
6032;BME280;3044;43.232;27.972;2023-05-27T00:08:47;43834.44;;;-143.84;91.38
6032;BME280;3044;43.232;27.972;2023-05-27T00:11:14;43819.19;;;-143.84;91.33
6032;BME280;3044;43.232;27.972;2023-05-27T00:13:41;43853.47;;;-143.84;91.30
6032;BME280;3044;43.232;27.972;2023-05-27T00:16:08;43834.44;;;-143.84;91.54
6032;BME280;3044;43.232;27.972;2023-05-27T00:18:36;43883.91;;;-143.84;91.18
6032;BME280;3044;43.232;27.972;2023-05-27T00:21:04;43908.66;;;-143.84;90.83
6032;BME280;3044;43.232;27.972;2023-05-27T00:23:32;43899.16;;;-143.84;90.81
6032;BME280;3044;43.232;27.972;2023-05-27T00:25:59;43922.00;;;-143.84;90.89
6032;BME280;3044;43.232;27.972;2023-05-27T00:28:26;43908.66;;;-143.84;90.93
6032;BME280;3044;43.232;27.972;2023-05-27T00:30:56;43908.66;;;-143.84;91.21
6032;BME280;3044;43.232;27.972;2023-05-27T00:33:23;43895.34;;;-143.84;91.20
6032;BME280;3044;43.232;27.972;2023-05-27T00:35:50;43851.56;;;-143.84;91.30
6032;BME280;3044;43.232;27.972;2023-05-27T00:38:18;43874.41;;;-143.84;91.43
6032;BME280;3044;43.232;27.972;2023-05-27T00:40:46;43866.78;;;-143.84;91.23
6032;BME280;3044;43.232;27.972;2023-05-27T00:43:16;43868.69;;;-143.84;91.11
6032;BME280;3044;43.232;27.972;2023-05-27T00:45:43;43862.97;;;-143.84;91.31
6032;BME280;3044;43.232;27.972;2023-05-27T00:48:10;43855.38;;;-143.84;91.20
6032;BME280;3044;43.232;27.972;2023-05-27T00:50:37;43845.84;;;-143.84;91.39
6032;BME280;3044;43.232;27.972;2023-05-27T00:53:05;43866.78;;;-143.84;91.69
6032;BME280;3044;43.232;27.972;2023-05-27T00:55:32;43830.63;;;-143.84;91.58
6032;BME280;3044;43.232;27.972;2023-05-27T00:58:02;43832.53;;;-143.84;92.04
6032;BME280;3044;43.232;27.972;2023-05-27T01:00:30;43823.00;;;-143.84;92.21
6032;BME280;3044;43.232;27.972;2023-05-27T01:02:57;43805.88;;;-143.84;92.38
6032;BME280;3044;43.232;27.972;2023-05-27T01:05:24;43817.31;;;-143.84;92.23
6032;BME280;3044;43.232;27.972;2023-05-27T01:08:13;43807.78;;;-143.84;92.57
6032;BME280;3044;43.232;27.972;2023-05-27T01:10:46;43807.78;;;-143.84;92.67
6032;BME280;3044;43.232;27.972;2023-05-27T01:13:23;43783.03;;;-143.84;92.97
6032;BME280;3044;43.232;27.972;2023-05-27T01:15:53;43830.63;;;-143.84;93.31
6032;BME280;3044;43.232;27.972;2023-05-27T01:18:24;43784.94;;;-143.84;93.20
6032;BME280;3044;43.232;27.972;2023-05-27T01:21:00;43807.78;;;-143.84;93.42
6032;BME280;3044;43.232;27.972;2023-05-27T01:23:30;43786.84;;;-143.84;93.47
6032;BME280;3044;43.232;27.972;2023-05-27T01:25:58;43807.78;;;-143.84;93.79
6032;BME280;3044;43.232;27.972;2023-05-27T01:28:26;43800.16;;;-143.84;93.80
6032;BME280;3044;43.232;27.972;2023-05-27T01:30:56;43851.56;;;-143.84;94.08
6032;BME280;3044;43.232;27.972;2023-05-27T01:33:28;43821.09;;;-143.84;93.99
6032;BME280;3044;43.232;27.972;2023-05-27T01:36:03;43821.09;;;-143.84;93.96
6032;BME280;3044;43.232;27.972;2023-05-27T01:38:34;43826.81;;;-143.84;93.91
6032;BME280;3044;43.232;27.972;2023-05-27T01:41:03;43815.41;;;-143.84;94.03
6032;BME280;3044;43.232;27.972;2023-05-27T01:43:31;43813.50;;;-143.84;94.06
6032;BME280;3044;43.232;27.972;2023-05-27T01:45:58;43794.47;;;-143.84;94.05
6032;BME280;3044;43.232;27.972;2023-05-27T01:48:25;43813.50;;;-143.84;94.03
6032;BME280;3044;43.232;27.972;2023-05-27T01:50:52;43840.13;;;-143.84;94.14
6032;BME280;3044;43.232;27.972;2023-05-27T01:53:20;43834.44;;;-143.84;94.27
6032;BME280;3044;43.232;27.972;2023-05-27T01:55:48;43796.34;;;-143.84;94.31
6032;BME280;3044;43.232;27.972;2023-05-27T01:58:15;43832.53;;;-143.84;94.31
6032;BME280;3044;43.232;27.972;2023-05-27T02:00:43;43834.44;;;-143.84;94.40
6032;BME280;3044;43.232;27.972;2023-05-27T02:03:10;43868.69;;;-143.84;94.59
6032;BME280;3044;43.232;27.972;2023-05-27T02:05:37;43849.66;;;-143.84;94.85
6032;BME280;3044;43.232;27.972;2023-05-27T02:08:04;43853.47;;;-143.84;94.92
6032;BME280;3044;43.232;27.972;2023-05-27T02:10:31;43851.56;;;-143.84;95.12
6032;BME280;3044;43.232;27.972;2023-05-27T02:13:00;43889.63;;;-143.84;95.22
6032;BME280;3044;43.232;27.972;2023-05-27T02:15:27;43857.28;;;-143.84;95.45
6032;BME280;3044;43.232;27.972;2023-05-27T02:17:54;43889.63;;;-143.84;95.31
6032;BME280;3044;43.232;27.972;2023-05-27T02:20:21;43880.13;;;-143.84;95.37
6032;BME280;3044;43.232;27.972;2023-05-27T02:22:49;43891.53;;;-143.84;95.62
6032;BME280;3044;43.232;27.972;2023-05-27T02:25:17;43864.88;;;-143.84;95.43
6032;BME280;3044;43.232;27.972;2023-05-27T02:27:53;43868.69;;;-143.84;95.34
6032;BME280;3044;43.232;27.972;2023-05-27T02:30:26;43864.88;;;-143.84;95.33
6032;BME280;3044;43.232;27.972;2023-05-27T02:32:57;43861.06;;;-143.84;95.16
6032;BME280;3044;43.232;27.972;2023-05-27T02:35:24;43845.84;;;-143.84;95.10
6032;BME280;3044;43.232;27.972;2023-05-27T02:37:57;43866.78;;;-143.84;94.95
6032;BME280;3044;43.232;27.972;2023-05-27T02:40:26;43861.06;;;-143.84;94.82
6032;BME280;3044;43.232;27.972;2023-05-27T02:42:54;43843.94;;;-143.84;94.61
6032;BME280;3044;43.232;27.972;2023-05-27T02:45:22;43847.75;;;-143.84;94.47
6032;BME280;3044;43.232;27.972;2023-05-27T02:47:52;43859.19;;;-143.84;94.62
6032;BME280;3044;43.232;27.972;2023-05-27T02:50:24;43834.44;;;-143.84;94.36
6032;BME280;3044;43.232;27.972;2023-05-27T02:52:52;43849.66;;;-143.84;94.22
6032;BME280;3044;43.232;27.972;2023-05-27T02:55:19;43845.84;;;-143.84;94.20
6032;BME280;3044;43.232;27.972;2023-05-27T02:57:46;43817.31;;;-143.84;94.22
6032;BME280;3044;43.232;27.972;2023-05-27T03:00:14;43836.34;;;-143.84;94.20
6032;BME280;3044;43.232;27.972;2023-05-27T03:02:44;43834.44;;;-143.84;94.11
6032;BME280;3044;43.232;27.972;2023-05-27T03:05:15;43838.25;;;-143.84;94.07
6032;BME280;3044;43.232;27.972;2023-05-27T03:07:42;43824.91;;;-143.84;93.91
6032;BME280;3044;43.232;27.972;2023-05-27T03:10:12;43809.69;;;-143.84;93.94
6032;BME280;3044;43.232;27.972;2023-05-27T03:12:40;43817.31;;;-143.84;93.72
6032;BME280;3044;43.232;27.972;2023-05-27T03:15:07;43798.25;;;-143.84;93.21
6032;BME280;3044;43.232;27.972;2023-05-27T03:17:36;43786.84;;;-143.84;92.85
6032;BME280;3044;43.232;27.972;2023-05-27T03:20:04;43817.31;;;-143.84;92.88
6032;BME280;3044;43.232;27.972;2023-05-27T03:22:35;43809.69;;;-143.84;92.38
6032;BME280;3044;43.232;27.972;2023-05-27T03:25:03;43828.72;;;-143.84;91.58
6032;BME280;3044;43.232;27.972;2023-05-27T03:27:31;43950.53;;;-143.84;90.38
6032;BME280;3044;43.232;27.972;2023-05-27T03:30:00;44453.13;;;-143.84;88.15
6032;BME280;3044;43.232;27.972;2023-05-27T03:32:27;44727.28;;;-143.84;86.41
6032;BME280;3044;43.232;27.972;2023-05-27T03:34:56;44972.91;;;-143.84;83.12
6032;BME280;3044;43.232;27.972;2023-05-27T03:37:23;45030.03;;;-143.84;81.34
6032;BME280;3044;43.232;27.972;2023-05-27T03:39:52;45045.25;;;-143.84;79.85
6032;BME280;3044;43.232;27.972;2023-05-27T03:42:22;45007.19;;;-143.84;78.58
6032;BME280;3044;43.232;27.972;2023-05-27T03:44:49;45073.81;;;-143.84;76.06
6032;BME280;3044;43.232;27.972;2023-05-27T03:47:19;45070.00;;;-143.84;74.65
6032;BME280;3044;43.232;27.972;2023-05-27T03:49:47;45070.00;;;-143.84;73.63
6032;BME280;3044;43.232;27.972;2023-05-27T03:52:14;45070.00;;;-143.84;73.27
6032;BME280;3044;43.232;27.972;2023-05-27T03:54:41;45066.22;;;-143.84;72.33
6032;BME280;3044;43.232;27.972;2023-05-27T03:57:10;45092.88;;;-143.84;71.55
6032;BME280;3044;43.232;27.972;2023-05-27T03:59:37;45068.13;;;-143.84;70.40
6032;BME280;3044;43.232;27.972;2023-05-27T04:02:05;45087.16;;;-143.84;69.77
6032;BME280;3044;43.232;27.972;2023-05-27T04:04:32;45089.06;;;-143.84;69.12
6032;BME280;3044;43.232;27.972;2023-05-27T04:06:59;45052.88;;;-143.84;69.07
6032;BME280;3044;43.232;27.972;2023-05-27T04:09:26;45062.41;;;-143.84;68.91
6032;BME280;3044;43.232;27.972;2023-05-27T04:11:53;45090.97;;;-143.84;67.92
6032;BME280;3044;43.232;27.972;2023-05-27T04:14:22;45077.63;;;-143.84;67.37
6032;BME280;3044;43.232;27.972;2023-05-27T04:16:49;45083.34;;;-143.84;67.56
6032;BME280;3044;43.232;27.972;2023-05-27T04:19:16;45049.06;;;-143.84;67.18
6032;BME280;3044;43.232;27.972;2023-05-27T04:21:43;45079.53;;;-143.84;67.20
6032;BME280;3044;43.232;27.972;2023-05-27T04:24:10;45077.63;;;-143.84;66.04
6032;BME280;3044;43.232;27.972;2023-05-27T04:26:37;45087.16;;;-143.84;65.57
6032;BME280;3044;43.232;27.972;2023-05-27T04:29:06;45052.88;;;-143.84;63.65
6032;BME280;3044;43.232;27.972;2023-05-27T04:31:36;45077.63;;;-143.84;63.25
6032;BME280;3044;43.232;27.972;2023-05-27T04:34:05;45043.34;;;-143.84;62.85
6032;BME280;3044;43.232;27.972;2023-05-27T04:36:32;45031.94;;;-143.84;61.52
6032;BME280;3044;43.232;27.972;2023-05-27T04:39:00;45077.63;;;-143.84;60.66
6032;BME280;3044;43.232;27.972;2023-05-27T04:41:27;45071.91;;;-143.84;59.89
6032;BME280;3044;43.232;27.972;2023-05-27T04:43:55;45070.00;;;-143.84;58.89
6032;BME280;3044;43.232;27.972;2023-05-27T04:46:24;45030.03;;;-143.84;57.81
6032;BME280;3044;43.232;27.972;2023-05-27T04:48:53;45035.75;;;-143.84;57.36
6032;BME280;3044;43.232;27.972;2023-05-27T04:51:21;45056.69;;;-143.84;56.55
6032;BME280;3044;43.232;27.972;2023-05-27T04:53:48;45052.88;;;-143.84;56.11
6032;BME280;3044;43.232;27.972;2023-05-27T04:56:16;45049.06;;;-143.84;56.85
6032;BME280;3044;43.232;27.972;2023-05-27T04:58:43;45079.53;;;-143.84;57.76
6032;BME280;3044;43.232;27.972;2023-05-27T05:01:14;45054.78;;;-143.84;59.02
6032;BME280;3044;43.232;27.972;2023-05-27T05:03:44;45070.00;;;-143.84;59.65
6032;BME280;3044;43.232;27.972;2023-05-27T05:06:21;45050.97;;;-143.84;60.44
6032;BME280;3044;43.232;27.972;2023-05-27T05:08:48;45056.69;;;-143.84;61.60
6032;BME280;3044;43.232;27.972;2023-05-27T05:11:15;45062.41;;;-143.84;63.20
6032;BME280;3044;43.232;27.972;2023-05-27T05:13:42;45064.31;;;-143.84;64.68
6032;BME280;3044;43.232;27.972;2023-05-27T05:16:09;45066.22;;;-143.84;66.46
6032;BME280;3044;43.232;27.972;2023-05-27T05:18:37;45049.06;;;-143.84;67.29
6032;BME280;3044;43.232;27.972;2023-05-27T05:21:04;45071.91;;;-143.84;68.41
6032;BME280;3044;43.232;27.972;2023-05-27T05:23:32;45068.13;;;-143.84;68.61
6032;BME280;3044;43.232;27.972;2023-05-27T05:25:59;45079.53;;;-143.84;69.08
6032;BME280;3044;43.232;27.972;2023-05-27T05:28:32;45056.69;;;-143.84;69.96
6032;BME280;3044;43.232;27.972;2023-05-27T05:31:00;45050.97;;;-143.84;70.56
6032;BME280;3044;43.232;27.972;2023-05-27T05:33:27;45075.72;;;-143.84;71.27
6032;BME280;3044;43.232;27.972;2023-05-27T05:35:55;45052.88;;;-143.84;71.68
6032;BME280;3044;43.232;27.972;2023-05-27T05:38:22;45062.41;;;-143.84;72.25
6032;BME280;3044;43.232;27.972;2023-05-27T05:40:51;45077.63;;;-143.84;73.22
6032;BME280;3044;43.232;27.972;2023-05-27T05:43:19;45071.91;;;-143.84;73.76
6032;BME280;3044;43.232;27.972;2023-05-27T05:45:47;45066.22;;;-143.84;74.68
6032;BME280;3044;43.232;27.972;2023-05-27T05:48:14;45035.75;;;-143.84;74.88
6032;BME280;3044;43.232;27.972;2023-05-27T05:50:41;45054.78;;;-143.84;75.41
6032;BME280;3044;43.232;27.972;2023-05-27T05:53:09;45045.25;;;-143.84;75.86
6032;BME280;3044;43.232;27.972;2023-05-27T05:55:36;45043.34;;;-143.84;76.34
6032;BME280;3044;43.232;27.972;2023-05-27T05:58:05;45062.41;;;-143.84;76.80
6032;BME280;3044;43.232;27.972;2023-05-27T06:00:32;45037.66;;;-143.84;77.10
6032;BME280;3044;43.232;27.972;2023-05-27T06:02:59;45062.41;;;-143.84;77.27
6032;BME280;3044;43.232;27.972;2023-05-27T06:05:26;45054.78;;;-143.84;77.69
6032;BME280;3044;43.232;27.972;2023-05-27T06:07:53;45039.53;;;-143.84;77.93
6032;BME280;3044;43.232;27.972;2023-05-27T06:10:21;45045.25;;;-143.84;78.45
6032;BME280;3044;43.232;27.972;2023-05-27T06:12:48;45014.78;;;-143.84;78.60
6032;BME280;3044;43.232;27.972;2023-05-27T06:15:16;45024.31;;;-143.84;78.77
6032;BME280;3044;43.232;27.972;2023-05-27T06:17:44;45030.03;;;-143.84;78.58
6032;BME280;3044;43.232;27.972;2023-05-27T06:20:12;45009.09;;;-143.84;78.68
6032;BME280;3044;43.232;27.972;2023-05-27T06:22:39;45020.50;;;-143.84;78.86
6032;BME280;3044;43.232;27.972;2023-05-27T06:25:07;45028.13;;;-143.84;79.21
6032;BME280;3044;43.232;27.972;2023-05-27T06:27:34;45016.69;;;-143.84;79.35
6032;BME280;3044;43.232;27.972;2023-05-27T06:30:02;45024.31;;;-143.84;79.52
6032;BME280;3044;43.232;27.972;2023-05-27T06:32:31;44999.56;;;-143.84;79.58
6032;BME280;3044;43.232;27.972;2023-05-27T06:34:58;44995.75;;;-143.84;79.76
6032;BME280;3044;43.232;27.972;2023-05-27T06:37:25;44993.84;;;-143.84;79.59
6032;BME280;3044;43.232;27.972;2023-05-27T06:39:52;45014.78;;;-143.84;79.57
6032;BME280;3044;43.232;27.972;2023-05-27T06:42:19;44976.72;;;-143.84;79.33
6032;BME280;3044;43.232;27.972;2023-05-27T06:44:48;45016.69;;;-143.84;79.21
6032;BME280;3044;43.232;27.972;2023-05-27T06:47:15;45003.38;;;-143.84;79.72
6032;BME280;3044;43.232;27.972;2023-05-27T06:49:43;45014.78;;;-143.84;79.37
6032;BME280;3044;43.232;27.972;2023-05-27T06:52:11;44978.63;;;-143.84;79.08
6032;BME280;3044;43.232;27.972;2023-05-27T06:54:38;44988.13;;;-143.84;79.02
6032;BME280;3044;43.232;27.972;2023-05-27T06:57:05;45016.69;;;-143.84;78.57
6032;BME280;3044;43.232;27.972;2023-05-27T06:59:32;44978.63;;;-143.84;78.18
6032;BME280;3044;43.232;27.972;2023-05-27T07:01:59;45028.13;;;-143.84;77.01
6032;BME280;3044;43.232;27.972;2023-05-27T07:04:26;45033.84;;;-143.84;76.06
6032;BME280;3044;43.232;27.972;2023-05-27T07:06:55;45045.25;;;-143.84;75.90
6032;BME280;3044;43.232;27.972;2023-05-27T07:09:22;45041.44;;;-143.84;73.38
6032;BME280;3044;43.232;27.972;2023-05-27T07:11:49;45058.59;;;-143.84;73.23
6032;BME280;3044;43.232;27.972;2023-05-27T07:14:16;45066.22;;;-143.84;73.18
6032;BME280;3044;43.232;27.972;2023-05-27T07:16:43;45070.00;;;-143.84;72.12
6032;BME280;3044;43.232;27.972;2023-05-27T07:19:10;45062.41;;;-143.84;72.00
6032;BME280;3044;43.232;27.972;2023-05-27T07:21:37;45062.41;;;-143.84;71.91
6032;BME280;3044;43.232;27.972;2023-05-27T07:24:06;45043.34;;;-143.84;72.30
6032;BME280;3044;43.232;27.972;2023-05-27T07:26:33;45045.25;;;-143.84;71.91
6032;BME280;3044;43.232;27.972;2023-05-27T07:29:00;45039.53;;;-143.84;71.78
6032;BME280;3044;43.232;27.972;2023-05-27T07:31:28;45062.41;;;-143.84;70.03
6032;BME280;3044;43.232;27.972;2023-05-27T07:33:55;45068.13;;;-143.84;69.40
6032;BME280;3044;43.232;27.972;2023-05-27T07:36:22;45049.06;;;-143.84;70.29
6032;BME280;3044;43.232;27.972;2023-05-27T07:38:49;45083.34;;;-143.84;70.42
6032;BME280;3044;43.232;27.972;2023-05-27T07:41:18;45043.34;;;-143.84;72.11
6032;BME280;3044;43.232;27.972;2023-05-27T07:43:45;45033.84;;;-143.84;74.13
6032;BME280;3044;43.232;27.972;2023-05-27T07:46:13;45037.66;;;-143.84;73.82
6032;BME280;3044;43.232;27.972;2023-05-27T07:48:40;45014.78;;;-143.84;73.63
6032;BME280;3044;43.232;27.972;2023-05-27T07:51:07;45033.84;;;-143.84;72.18
6032;BME280;3044;43.232;27.972;2023-05-27T07:53:36;45037.66;;;-143.84;72.12
6032;BME280;3044;43.232;27.972;2023-05-27T07:56:03;45028.13;;;-143.84;71.46
6032;BME280;3044;43.232;27.972;2023-05-27T07:58:32;45064.31;;;-143.84;68.55
6032;BME280;3044;43.232;27.972;2023-05-27T08:00:59;45041.44;;;-143.84;67.81
6032;BME280;3044;43.232;27.972;2023-05-27T08:03:26;45037.66;;;-143.84;67.02
6032;BME280;3044;43.232;27.972;2023-05-27T08:05:53;45035.75;;;-143.84;62.47
6032;BME280;3044;43.232;27.972;2023-05-27T08:08:20;45054.78;;;-143.84;60.52
6032;BME280;3044;43.232;27.972;2023-05-27T08:10:47;45045.25;;;-143.84;62.63
6032;BME280;3044;43.232;27.972;2023-05-27T08:13:14;45058.59;;;-143.84;61.74
6032;BME280;3044;43.232;27.972;2023-05-27T08:15:43;45041.44;;;-143.84;59.48
6032;BME280;3044;43.232;27.972;2023-05-27T08:18:10;45033.84;;;-143.84;58.25
6032;BME280;3044;43.232;27.972;2023-05-27T08:20:37;45041.44;;;-143.84;57.08
6032;BME280;3044;43.232;27.972;2023-05-27T08:23:04;45045.25;;;-143.84;56.69
6032;BME280;3044;43.232;27.972;2023-05-27T08:25:31;45037.66;;;-143.84;57.92
6032;BME280;3044;43.232;27.972;2023-05-27T08:27:58;45037.66;;;-143.84;59.07
6032;BME280;3044;43.232;27.972;2023-05-27T08:30:27;45058.59;;;-143.84;60.46
6032;BME280;3044;43.232;27.972;2023-05-27T08:32:56;45070.00;;;-143.84;61.09
6032;BME280;3044;43.232;27.972;2023-05-27T08:35:23;45068.13;;;-143.84;61.18
6032;BME280;3044;43.232;27.972;2023-05-27T08:37:50;45071.91;;;-143.84;62.46
6032;BME280;3044;43.232;27.972;2023-05-27T08:40:18;45079.53;;;-143.84;63.17
6032;BME280;3044;43.232;27.972;2023-05-27T08:42:46;45064.31;;;-143.84;63.77
6032;BME280;3044;43.232;27.972;2023-05-27T08:45:14;45068.13;;;-143.84;64.46
6032;BME280;3044;43.232;27.972;2023-05-27T08:47:42;45058.59;;;-143.84;65.19
6032;BME280;3044;43.232;27.972;2023-05-27T08:50:10;45077.63;;;-143.84;65.27
6032;BME280;3044;43.232;27.972;2023-05-27T08:52:44;45052.88;;;-143.84;63.98
6032;BME280;3044;43.232;27.972;2023-05-27T08:55:14;45058.59;;;-143.84;67.55
6032;BME280;3044;43.232;27.972;2023-05-27T08:57:44;45041.44;;;-143.84;70.23
6032;BME280;3044;43.232;27.972;2023-05-27T09:00:13;45054.78;;;-143.84;73.57
6032;BME280;3044;43.232;27.972;2023-05-27T09:02:40;45054.78;;;-143.84;74.20
6032;BME280;3044;43.232;27.972;2023-05-27T09:05:10;45041.44;;;-143.84;76.27
6032;BME280;3044;43.232;27.972;2023-05-27T09:07:38;45022.41;;;-143.84;77.67
6032;BME280;3044;43.232;27.972;2023-05-27T09:10:06;45033.84;;;-143.84;76.43
6032;BME280;3044;43.232;27.972;2023-05-27T09:12:34;45001.47;;;-143.84;77.49
6032;BME280;3044;43.232;27.972;2023-05-27T09:15:02;44984.31;;;-143.84;78.47
6032;BME280;3044;43.232;27.972;2023-05-27T09:17:30;44986.22;;;-143.84;78.66
6032;BME280;3044;43.232;27.972;2023-05-27T09:19:58;44991.94;;;-143.84;78.79
6032;BME280;3044;43.232;27.972;2023-05-27T09:22:30;44991.94;;;-143.84;79.04
6032;BME280;3044;43.232;27.972;2023-05-27T09:24:57;44967.19;;;-143.84;78.93
6032;BME280;3044;43.232;27.972;2023-05-27T09:27:25;44972.91;;;-143.84;79.77
6032;BME280;3044;43.232;27.972;2023-05-27T09:29:52;44858.66;;;-143.84;81.64
6032;BME280;3044;43.232;27.972;2023-05-27T09:32:26;44870.09;;;-143.84;81.83
6032;BME280;3044;43.232;27.972;2023-05-27T09:34:54;44923.41;;;-143.84;79.57
6032;BME280;3044;43.232;27.972;2023-05-27T09:37:24;45022.41;;;-143.84;74.38
6032;BME280;3044;43.232;27.972;2023-05-27T09:39:58;45033.84;;;-143.84;74.15
6032;BME280;3044;43.232;27.972;2023-05-27T09:42:25;45024.31;;;-143.84;74.35
6032;BME280;3044;43.232;27.972;2023-05-27T09:44:54;45060.50;;;-143.84;72.23
6032;BME280;3044;43.232;27.972;2023-05-27T09:47:21;45028.13;;;-143.84;74.21
6032;BME280;3044;43.232;27.972;2023-05-27T09:49:52;45050.97;;;-143.84;72.12
6032;BME280;3044;43.232;27.972;2023-05-27T09:52:20;45033.84;;;-143.84;73.02
6032;BME280;3044;43.232;27.972;2023-05-27T09:54:48;45049.06;;;-143.84;73.05
6032;BME280;3044;43.232;27.972;2023-05-27T09:57:18;45028.13;;;-143.84;72.29
6032;BME280;3044;43.232;27.972;2023-05-27T09:59:47;45030.03;;;-143.84;72.27
6032;BME280;3044;43.232;27.972;2023-05-27T10:02:17;45007.19;;;-143.84;75.91
6032;BME280;3044;43.232;27.972;2023-05-27T10:04:45;45056.69;;;-143.84;72.96
6032;BME280;3044;43.232;27.972;2023-05-27T10:07:17;45083.34;;;-143.84;74.36
6032;BME280;3044;43.232;27.972;2023-05-27T10:09:46;45024.31;;;-143.84;74.64
6032;BME280;3044;43.232;27.972;2023-05-27T10:12:14;45026.22;;;-143.84;77.49
6032;BME280;3044;43.232;27.972;2023-05-27T10:14:44;45003.38;;;-143.84;78.23
6032;BME280;3044;43.232;27.972;2023-05-27T10:17:12;45005.28;;;-143.84;77.01
6032;BME280;3044;43.232;27.972;2023-05-27T10:19:53;45014.78;;;-143.84;77.12
6032;BME280;3044;43.232;27.972;2023-05-27T10:22:21;45010.97;;;-143.84;76.15
6032;BME280;3044;43.232;27.972;2023-05-27T10:24:48;45056.69;;;-143.84;75.95
6032;BME280;3044;43.232;27.972;2023-05-27T10:27:15;45043.34;;;-143.84;75.63
6032;BME280;3044;43.232;27.972;2023-05-27T10:29:44;45037.66;;;-143.84;76.65
6032;BME280;3044;43.232;27.972;2023-05-27T10:32:11;45003.38;;;-143.84;76.86
6032;BME280;3044;43.232;27.972;2023-05-27T10:34:44;44997.66;;;-143.84;78.07
6032;BME280;3044;43.232;27.972;2023-05-27T10:37:19;44991.94;;;-143.84;78.49
6032;BME280;3044;43.232;27.972;2023-05-27T10:39:53;44988.13;;;-143.84;78.51
6032;BME280;3044;43.232;27.972;2023-05-27T10:42:21;45009.09;;;-143.84;78.39
6032;BME280;3044;43.232;27.972;2023-05-27T10:45:03;45007.19;;;-143.84;78.68
6032;BME280;3044;43.232;27.972;2023-05-27T10:47:30;44991.94;;;-143.84;79.30
6032;BME280;3044;43.232;27.972;2023-05-27T10:49:58;44974.81;;;-143.84;80.01
6032;BME280;3044;43.232;27.972;2023-05-27T10:52:25;44957.66;;;-143.84;80.97
6032;BME280;3044;43.232;27.972;2023-05-27T10:54:57;44911.97;;;-143.84;81.62
6032;BME280;3044;43.232;27.972;2023-05-27T10:57:30;44950.06;;;-143.84;81.03
6032;BME280;3044;43.232;27.972;2023-05-27T11:00:02;44942.44;;;-143.84;80.87
6032;BME280;3044;43.232;27.972;2023-05-27T11:02:35;44951.97;;;-143.84;80.74
6032;BME280;3044;43.232;27.972;2023-05-27T11:05:14;44972.91;;;-143.84;79.27
6032;BME280;3044;43.232;27.972;2023-05-27T11:07:41;44991.94;;;-143.84;79.23
6032;BME280;3044;43.232;27.972;2023-05-27T11:10:09;44988.13;;;-143.84;79.62
6032;BME280;3044;43.232;27.972;2023-05-27T11:12:36;44993.84;;;-143.84;79.93
6032;BME280;3044;43.232;27.972;2023-05-27T11:15:05;44974.81;;;-143.84;80.41
6032;BME280;3044;43.232;27.972;2023-05-27T11:17:32;44982.41;;;-143.84;80.69
6032;BME280;3044;43.232;27.972;2023-05-27T11:20:00;44967.19;;;-143.84;80.65
6032;BME280;3044;43.232;27.972;2023-05-27T11:22:30;44908.16;;;-143.84;81.34
6032;BME280;3044;43.232;27.972;2023-05-27T11:25:01;44931.00;;;-143.84;80.93
6032;BME280;3044;43.232;27.972;2023-05-27T11:27:35;44951.97;;;-143.84;81.00
6032;BME280;3044;43.232;27.972;2023-05-27T11:30:08;44969.09;;;-143.84;81.26
6032;BME280;3044;43.232;27.972;2023-05-27T11:32:36;44927.19;;;-143.84;81.45
6032;BME280;3044;43.232;27.972;2023-05-27T11:35:04;44978.63;;;-143.84;81.47
6032;BME280;3044;43.232;27.972;2023-05-27T11:37:33;44938.63;;;-143.84;81.35
6032;BME280;3044;43.232;27.972;2023-05-27T11:40:02;44982.41;;;-143.84;80.67
6032;BME280;3044;43.232;27.972;2023-05-27T11:42:30;44969.09;;;-143.84;80.90
6032;BME280;3044;43.232;27.972;2023-05-27T11:44:57;44965.28;;;-143.84;80.89
6032;BME280;3044;43.232;27.972;2023-05-27T11:47:27;44913.88;;;-143.84;81.70
6032;BME280;3044;43.232;27.972;2023-05-27T11:49:54;44873.88;;;-143.84;82.70
6032;BME280;3044;43.232;27.972;2023-05-27T11:52:24;44830.09;;;-143.84;83.24
6032;BME280;3044;43.232;27.972;2023-05-27T11:54:52;44822.47;;;-143.84;83.88
6032;BME280;3044;43.232;27.972;2023-05-27T11:57:19;44788.22;;;-143.84;84.25
6032;BME280;3044;43.232;27.972;2023-05-27T11:59:46;44803.44;;;-143.84;83.97
6032;BME280;3044;43.232;27.972;2023-05-27T12:02:13;44849.13;;;-143.84;83.68
6032;BME280;3044;43.232;27.972;2023-05-27T12:04:42;44828.19;;;-143.84;83.82
6032;BME280;3044;43.232;27.972;2023-05-27T12:07:09;44771.06;;;-143.84;84.35
6032;BME280;3044;43.232;27.972;2023-05-27T12:09:36;44793.91;;;-143.84;84.04
6032;BME280;3044;43.232;27.972;2023-05-27T12:12:03;44700.63;;;-143.84;85.31
6032;BME280;3044;43.232;27.972;2023-05-27T12:14:31;44664.44;;;-143.84;85.28
6032;BME280;3044;43.232;27.972;2023-05-27T12:16:58;44620.66;;;-143.84;86.05
6032;BME280;3044;43.232;27.972;2023-05-27T12:19:25;44675.88;;;-143.84;85.13
6032;BME280;3044;43.232;27.972;2023-05-27T12:21:55;44809.16;;;-143.84;84.25
6032;BME280;3044;43.232;27.972;2023-05-27T12:24:22;44824.38;;;-143.84;84.33
6032;BME280;3044;43.232;27.972;2023-05-27T12:26:50;44809.16;;;-143.84;84.38
6032;BME280;3044;43.232;27.972;2023-05-27T12:29:17;44734.91;;;-143.84;84.80
6032;BME280;3044;43.232;27.972;2023-05-27T12:31:44;44744.41;;;-143.84;84.89
6032;BME280;3044;43.232;27.972;2023-05-27T12:34:11;44734.91;;;-143.84;85.02
6032;BME280;3044;43.232;27.972;2023-05-27T12:36:38;44788.22;;;-143.84;84.42
6032;BME280;3044;43.232;27.972;2023-05-27T12:39:07;44763.47;;;-143.84;84.64
6032;BME280;3044;43.232;27.972;2023-05-27T12:41:34;44778.69;;;-143.84;84.79
6032;BME280;3044;43.232;27.972;2023-05-27T12:44:01;44832.00;;;-143.84;84.06
6032;BME280;3044;43.232;27.972;2023-05-27T12:46:29;44801.53;;;-143.84;83.95
6032;BME280;3044;43.232;27.972;2023-05-27T12:48:56;44835.81;;;-143.84;83.65
6032;BME280;3044;43.232;27.972;2023-05-27T12:51:23;44896.75;;;-143.84;83.47
6032;BME280;3044;43.232;27.972;2023-05-27T12:53:51;44862.47;;;-143.84;83.05
6032;BME280;3044;43.232;27.972;2023-05-27T12:56:19;44915.78;;;-143.84;82.31